Time;durP1;ratioP1;P1;durP2;ratioP2;P2;SDS_P1;SDS_P2;PMS_P1;PMS_P2;Temp;Humidity;BMP_temperature;BMP_pressure;BME280_temperature;BME280_humidity;BME280_pressure;Samples;Min_cycle;Max_cycle;Signal;HPM_P1;HPM_P2
2023/03/16 00:02:02;;;;;;;15.75;6.15;;;;;;;;;;5063938;28;20032;-50
2023/03/16 00:04:27;;;;;;;10.32;4.97;;;;;;;;;;5064132;28;20120;-53
2023/03/16 00:06:53;;;;;;;14.18;5.40;;;;;;;;;;5064440;28;20040;-50
2023/03/16 00:09:18;;;;;;;11.10;4.82;;;;;;;;;;5064454;28;20386;-49
2023/03/16 00:11:43;;;;;;;12.57;5.80;;;;;;;;;;5064221;28;20026;-51
2023/03/16 00:14:09;;;;;;;13.50;5.93;;;;;;;;;;5064082;28;20103;-53
2023/03/16 00:16:34;;;;;;;13.43;5.10;;;;;;;;;;5064138;28;20196;-48
2023/03/16 00:19:02;;;;;;;11.18;4.90;;;;;;;;;;5061073;28;20067;-50
2023/03/16 00:21:29;;;;;;;14.75;4.75;;;;;;;;;;5063791;28;20347;-51
2023/03/16 00:23:54;;;;;;;11.73;5.70;;;;;;;;;;5064230;28;20022;-53
2023/03/16 00:26:21;;;;;;;13.55;5.55;;;;;;;;;;5063961;28;20099;-51
2023/03/16 00:28:46;;;;;;;12.30;5.40;;;;;;;;;;5064126;28;20130;-50
2023/03/16 00:31:12;;;;;;;18.00;5.78;;;;;;;;;;5063940;28;20520;-50
2023/03/16 00:33:38;;;;;;;21.38;6.25;;;;;;;;;;5063930;28;20024;-48
2023/03/16 00:36:06;;;;;;;20.45;5.82;;;;;;;;;;5061019;28;20025;-48
2023/03/16 00:38:33;;;;;;;11.07;5.43;;;;;;;;;;5064319;28;20028;-49
2023/03/16 00:40:59;;;;;;;14.13;5.88;;;;;;;;;;5063372;28;20040;-50
2023/03/16 00:43:26;;;;;;;13.48;6.40;;;;;;;;;;5077961;28;20027;-51
2023/03/16 00:45:56;;;;;;;13.70;5.85;;;;;;;;;;5063676;28;20052;-53
2023/03/16 00:48:23;;;;;;;11.90;6.47;;;;;;;;;;5060998;28;20037;-49
2023/03/16 00:50:48;;;;;;;17.00;5.80;;;;;;;;;;5062555;28;20115;-51
2023/03/16 00:53:13;;;;;;;13.25;5.63;;;;;;;;;;5063685;28;20112;-53
2023/03/16 00:55:39;;;;;;;12.68;6.40;;;;;;;;;;5063905;28;20652;-49
2023/03/16 00:58:04;;;;;;;10.90;5.65;;;;;;;;;;5063767;28;20127;-52
2023/03/16 01:00:29;;;;;;;13.02;5.50;;;;;;;;;;5063797;28;20077;-52
2023/03/16 01:02:55;;;;;;;11.95;5.95;;;;;;;;;;5064189;28;20020;-53
2023/03/16 01:05:20;;;;;;;9.80;5.28;;;;;;;;;;5060854;28;20028;-54
2023/03/16 01:07:45;;;;;;;14.15;5.50;;;;;;;;;;5063789;28;20631;-51
2023/03/16 01:10:11;;;;;;;11.48;5.05;;;;;;;;;;5063787;28;20025;-50
2023/03/16 01:12:36;;;;;;;13.60;4.93;;;;;;;;;;5064007;28;20029;-51
2023/03/16 01:15:02;;;;;;;13.65;5.32;;;;;;;;;;5063590;28;20142;-50
2023/03/16 01:17:28;;;;;;;18.42;5.10;;;;;;;;;;5063445;28;20017;-49
2023/03/16 01:19:53;;;;;;;10.52;5.40;;;;;;;;;;5063161;28;20067;-53
2023/03/16 01:22:19;;;;;;;15.93;6.55;;;;;;;;;;5060873;28;20037;-52
2023/03/16 01:24:44;;;;;;;19.05;6.45;;;;;;;;;;5063437;28;20016;-51
2023/03/16 01:27:10;;;;;;;14.90;7.00;;;;;;;;;;5063298;28;20456;-53
2023/03/16 01:29:36;;;;;;;18.33;6.93;;;;;;;;;;5063311;28;20783;-51
2023/03/16 01:32:03;;;;;;;17.60;7.45;;;;;;;;;;5063356;28;20028;-51
2023/03/16 01:34:28;;;;;;;21.33;6.72;;;;;;;;;;5063429;28;20492;-49
2023/03/16 01:36:53;;;;;;;16.17;5.82;;;;;;;;;;5063569;28;20031;-52
2023/03/16 01:39:19;;;;;;;12.60;5.25;;;;;;;;;;5063533;28;20055;-54
2023/03/16 01:41:45;;;;;;;8.80;4.80;;;;;;;;;;5063332;28;20086;-52
2023/03/16 01:44:15;;;;;;;12.07;4.65;;;;;;;;;;5063442;28;20021;-49
2023/03/16 01:46:41;;;;;;;9.63;4.80;;;;;;;;;;5063332;28;20068;-50
2023/03/16 01:49:09;;;;;;;13.23;4.82;;;;;;;;;;5063212;28;20012;-53
2023/03/16 01:51:50;;;;;;;11.52;5.05;;;;;;;;;;5063441;28;20024;-50
2023/03/16 01:54:27;;;;;;;11.38;4.55;;;;;;;;;;5063169;28;20019;-48
2023/03/16 01:57:15;;;;;;;13.35;6.10;;;;;;;;;;5063222;28;20637;-50
2023/03/16 02:00:08;;;;;;;16.58;5.30;;;;;;;;;;5040128;28;20033;-52
2023/03/16 02:02:33;;;;;;;11.23;5.13;;;;;;;;;;5043996;28;20033;-51
2023/03/16 02:04:59;;;;;;;15.68;5.43;;;;;;;;;;5043587;28;20735;-49
2023/03/16 02:07:26;;;;;;;12.73;5.78;;;;;;;;;;5010445;28;20485;-51
2023/03/16 02:09:53;;;;;;;14.98;5.80;;;;;;;;;;5043750;28;20017;-53
2023/03/16 02:12:19;;;;;;;12.48;5.25;;;;;;;;;;5043838;28;20021;-52
2023/03/16 02:14:45;;;;;;;12.23;5.80;;;;;;;;;;5043304;28;20044;-51
2023/03/16 02:17:11;;;;;;;17.15;5.45;;;;;;;;;;5043652;28;20032;-51
2023/03/16 02:19:45;;;;;;;13.68;6.20;;;;;;;;;;5043148;28;20082;-50
2023/03/16 02:22:12;;;;;;;19.02;7.25;;;;;;;;;;5043462;28;20033;-49
2023/03/16 02:24:38;;;;;;;14.18;6.70;;;;;;;;;;5043723;28;20075;-52
2023/03/16 02:27:05;;;;;;;16.33;6.53;;;;;;;;;;5043475;28;20029;-50
2023/03/16 02:29:48;;;;;;;12.50;7.22;;;;;;;;;;5043547;28;20025;-53
2023/03/16 02:32:13;;;;;;;16.00;6.55;;;;;;;;;;5043784;28;20112;-51
2023/03/16 02:34:39;;;;;;;17.85;6.82;;;;;;;;;;5043234;28;20222;-54
2023/03/16 02:37:06;;;;;;;18.50;6.90;;;;;;;;;;5057944;28;20072;-52
2023/03/16 02:39:33;;;;;;;16.90;5.97;;;;;;;;;;5066281;28;20604;-53
2023/03/16 02:41:59;;;;;;;15.85;5.72;;;;;;;;;;5065952;28;20123;-53
2023/03/16 02:44:35;;;;;;;14.45;5.50;;;;;;;;;;5066202;28;20444;-51
2023/03/16 02:47:14;;;;;;;12.50;5.57;;;;;;;;;;5065979;28;21200;-53
2023/03/16 02:49:41;;;;;;;15.68;5.80;;;;;;;;;;5063583;28;20121;-52
2023/03/16 02:52:06;;;;;;;13.60;6.03;;;;;;;;;;5066190;28;20036;-51
2023/03/16 02:54:32;;;;;;;11.10;5.32;;;;;;;;;;5065704;28;20090;-49
2023/03/16 02:56:57;;;;;;;11.95;5.47;;;;;;;;;;5063125;28;20036;-53
2023/03/16 02:59:22;;;;;;;8.57;4.30;;;;;;;;;;5065956;28;20123;-54
2023/03/16 03:01:48;;;;;;;10.68;5.45;;;;;;;;;;5065551;28;20036;-53
2023/03/16 03:04:13;;;;;;;11.38;5.43;;;;;;;;;;5065566;28;20379;-51
2023/03/16 03:06:39;;;;;;;13.55;5.43;;;;;;;;;;5065598;28;20032;-51
2023/03/16 03:09:05;;;;;;;11.38;5.88;;;;;;;;;;5065472;28;20040;-53
2023/03/16 03:11:31;;;;;;;13.63;5.20;;;;;;;;;;5065187;28;20036;-49
2023/03/16 03:13:56;;;;;;;15.07;5.28;;;;;;;;;;5062807;28;20089;-50
2023/03/16 03:16:22;;;;;;;12.18;5.28;;;;;;;;;;5065532;28;20020;-51
2023/03/16 03:18:47;;;;;;;10.93;5.25;;;;;;;;;;5065155;28;20020;-51
2023/03/16 03:21:13;;;;;;;16.13;5.57;;;;;;;;;;5065082;28;20032;-53
2023/03/16 03:23:38;;;;;;;14.85;6.18;;;;;;;;;;5065220;28;20017;-50
2023/03/16 03:26:03;;;;;;;15.27;5.55;;;;;;;;;;5065026;28;20461;-54
2023/03/16 03:28:29;;;;;;;11.07;5.25;;;;;;;;;;5065131;28;20112;-50
2023/03/16 03:30:55;;;;;;;11.43;4.90;;;;;;;;;;5065121;28;20077;-54
2023/03/16 03:33:21;;;;;;;15.65;5.80;;;;;;;;;;5064880;28;20036;-52
2023/03/16 03:35:46;;;;;;;13.23;5.30;;;;;;;;;;5064792;28;20028;-50
2023/03/16 03:38:12;;;;;;;19.48;5.68;;;;;;;;;;5064887;28;20021;-51
2023/03/16 03:40:37;;;;;;;14.00;5.93;;;;;;;;;;5064540;28;20023;-53
2023/03/16 03:43:03;;;;;;;13.88;5.63;;;;;;;;;;5064577;28;20039;-53
2023/03/16 03:45:29;;;;;;;11.77;5.55;;;;;;;;;;5064497;28;20084;-52
2023/03/16 03:47:55;;;;;;;10.35;4.88;;;;;;;;;;5064724;28;20052;-53
2023/03/16 03:50:20;;;;;;;10.43;4.90;;;;;;;;;;5064839;28;20028;-53
2023/03/16 03:52:46;;;;;;;16.23;5.00;;;;;;;;;;5064847;28;20025;-53
2023/03/16 03:55:11;;;;;;;9.70;4.13;;;;;;;;;;5064303;28;20016;-50
2023/03/16 03:57:37;;;;;;;11.07;4.75;;;;;;;;;;5064645;28;20070;-52
2023/03/16 04:00:06;;;;;;;9.73;4.13;;;;;;;;;;5064409;28;20475;-54
2023/03/16 04:02:32;;;;;;;9.43;4.20;;;;;;;;;;5064360;28;20655;-52
2023/03/16 04:04:57;;;;;;;9.60;4.50;;;;;;;;;;5064396;28;20035;-54
2023/03/16 04:07:22;;;;;;;7.60;4.20;;;;;;;;;;5064122;28;20028;-53
2023/03/16 04:09:48;;;;;;;11.55;5.32;;;;;;;;;;5064176;28;20133;-52
2023/03/16 04:12:13;;;;;;;13.18;4.40;;;;;;;;;;5064135;28;20609;-52
2023/03/16 04:14:38;;;;;;;8.80;4.40;;;;;;;;;;5061428;28;20044;-51
2023/03/16 04:17:04;;;;;;;12.65;4.75;;;;;;;;;;5064409;28;20017;-54
2023/03/16 04:19:29;;;;;;;13.68;5.15;;;;;;;;;;5063984;28;20020;-54
2023/03/16 04:21:54;;;;;;;11.18;5.18;;;;;;;;;;5061159;28;20036;-50
2023/03/16 04:24:21;;;;;;;17.17;4.82;;;;;;;;;;5063535;28;20123;-50
2023/03/16 04:26:46;;;;;;;12.02;4.53;;;;;;;;;;5063014;28;20574;-52
2023/03/16 04:29:16;;;;;;;11.35;5.38;;;;;;;;;;5063897;28;20024;-54
2023/03/16 04:31:42;;;;;;;6.65;4.13;;;;;;;;;;5063865;28;20020;-51
2023/03/16 04:34:07;;;;;;;7.85;4.07;;;;;;;;;;5063955;28;20019;-53
2023/03/16 04:36:33;;;;;;;8.23;4.40;;;;;;;;;;5063936;28;20476;-54
2023/03/16 04:38:58;;;;;;;11.30;4.13;;;;;;;;;;5061471;28;20040;-50
2023/03/16 04:41:24;;;;;;;10.70;4.30;;;;;;;;;;5063629;28;20066;-49
2023/03/16 04:43:49;;;;;;;9.02;4.97;;;;;;;;;;5063976;28;20024;-51
2023/03/16 04:46:14;;;;;;;9.30;4.00;;;;;;;;;;5063856;28;20056;-54
2023/03/16 04:48:40;;;;;;;12.98;4.82;;;;;;;;;;5063833;28;20050;-52
2023/03/16 04:51:05;;;;;;;8.82;4.47;;;;;;;;;;5061234;28;20042;-53
2023/03/16 04:53:31;;;;;;;14.07;4.80;;;;;;;;;;5063652;28;20028;-52
2023/03/16 04:55:57;;;;;;;12.63;4.72;;;;;;;;;;5063653;28;20032;-51
2023/03/16 04:58:22;;;;;;;13.82;4.20;;;;;;;;;;5063660;28;20364;-52
2023/03/16 05:00:47;;;;;;;11.05;4.32;;;;;;;;;;5063606;28;20033;-54
2023/03/16 05:03:13;;;;;;;18.45;4.97;;;;;;;;;;5063603;28;20124;-53
2023/03/16 05:05:39;;;;;;;12.45;4.30;;;;;;;;;;5063770;28;20615;-54
2023/03/16 05:08:05;;;;;;;8.13;4.38;;;;;;;;;;5063442;28;20021;-54
2023/03/16 05:10:30;;;;;;;7.57;4.15;;;;;;;;;;5063770;28;20029;-54
2023/03/16 05:12:55;;;;;;;8.13;4.38;;;;;;;;;;5063553;28;20030;-52
2023/03/16 05:15:21;;;;;;;13.50;4.97;;;;;;;;;;5063375;28;20032;-49
2023/03/16 05:17:46;;;;;;;13.98;5.03;;;;;;;;;;5063874;28;20059;-54
2023/03/16 05:20:12;;;;;;;11.00;4.53;;;;;;;;;;5063013;28;20361;-54
2023/03/16 05:22:41;;;;;;;8.13;5.10;;;;;;;;;;5063594;28;20024;-54
2023/03/16 05:25:06;;;;;;;;;;;;;;;;;;5063737;28;20035;-54
2023/03/16 05:27:33;;;;;;;12.52;4.57;;;;;;;;;;5063039;28;19905;-53
2023/03/16 05:30:00;;;;;;;9.38;5.28;;;;;;;;;;5059741;28;20451;-52
2023/03/16 05:32:25;;;;;;;9.50;5.28;;;;;;;;;;5061378;28;20033;-53
2023/03/16 05:34:51;;;;;;;16.73;5.55;;;;;;;;;;5060978;28;20025;-52
2023/03/16 05:37:17;;;;;;;11.27;4.88;;;;;;;;;;5064506;28;20017;-53
2023/03/16 05:39:43;;;;;;;9.65;5.03;;;;;;;;;;5065070;28;20024;-54
2023/03/16 05:42:09;;;;;;;12.07;5.13;;;;;;;;;;5064583;28;20404;-52
2023/03/16 05:44:34;;;;;;;16.50;5.32;;;;;;;;;;5064845;28;20412;-52
2023/03/16 05:46:59;;;;;;;13.30;4.82;;;;;;;;;;5064937;28;20357;-54
2023/03/16 05:49:25;;;;;;;14.65;5.43;;;;;;;;;;5064693;28;20158;-53
2023/03/16 05:51:50;;;;;;;15.30;5.80;;;;;;;;;;5064863;28;20025;-47
2023/03/16 05:54:15;;;;;;;19.35;6.85;;;;;;;;;;5078836;28;20029;-50
2023/03/16 05:56:41;;;;;;;22.23;9.63;;;;;;;;;;5065615;28;20020;-51
2023/03/16 05:59:06;;;;;;;26.60;8.60;;;;;;;;;;5066372;28;20211;-53
2023/03/16 06:01:32;;;;;;;21.27;7.72;;;;;;;;;;5066553;28;20690;-51
2023/03/16 06:03:58;;;;;;;14.30;6.65;;;;;;;;;;5066552;28;20039;-53
2023/03/16 06:06:23;;;;;;;18.50;6.78;;;;;;;;;;5066656;28;20099;-53
2023/03/16 06:08:49;;;;;;;14.18;6.20;;;;;;;;;;5066698;28;20032;-52
2023/03/16 06:11:14;;;;;;;12.95;5.38;;;;;;;;;;5066518;28;20025;-53
2023/03/16 06:13:40;;;;;;;8.30;4.05;;;;;;;;;;5066220;28;20020;-53
2023/03/16 06:16:05;;;;;;;11.48;4.47;;;;;;;;;;5066734;28;20021;-54
2023/03/16 06:18:32;;;;;;;11.68;4.13;;;;;;;;;;5066457;28;20427;-53
2023/03/16 06:20:57;;;;;;;11.35;4.30;;;;;;;;;;5065981;28;20028;-53
2023/03/16 06:23:23;;;;;;;7.50;3.53;;;;;;;;;;5066168;28;20024;-54
2023/03/16 06:25:48;;;;;;;10.55;4.40;;;;;;;;;;5066241;28;20745;-53
2023/03/16 06:28:15;;;;;;;10.45;3.92;;;;;;;;;;5066545;28;20023;-55
2023/03/16 06:30:40;;;;;;;8.65;4.07;;;;;;;;;;5066179;28;20021;-52
2023/03/16 06:33:06;;;;;;;10.38;4.25;;;;;;;;;;5066242;28;20032;-53
2023/03/16 06:35:32;;;;;;;8.45;4.05;;;;;;;;;;5065597;28;20065;-51
2023/03/16 06:37:57;;;;;;;8.15;3.88;;;;;;;;;;5064259;28;20066;-50
2023/03/16 06:40:23;;;;;;;9.55;4.05;;;;;;;;;;5064272;28;20433;-53
2023/03/16 06:42:48;;;;;;;18.67;4.95;;;;;;;;;;5063693;28;20690;-50
2023/03/16 06:45:15;;;;;;;9.75;3.72;;;;;;;;;;5061213;28;20156;-54
2023/03/16 06:47:42;;;;;;;10.43;3.97;;;;;;;;;;5054969;28;20048;-53
2023/03/16 06:50:08;;;;;;;11.85;4.43;;;;;;;;;;5072784;28;20057;-55
2023/03/16 06:52:33;;;;;;;15.68;4.45;;;;;;;;;;5056538;28;20033;-52
2023/03/16 06:54:58;;;;;;;10.75;3.80;;;;;;;;;;5057887;28;20044;-50
2023/03/16 06:57:24;;;;;;;11.95;4.15;;;;;;;;;;5054795;28;20052;-49
2023/03/16 06:59:49;;;;;;;9.07;3.90;;;;;;;;;;5054916;28;20049;-51
2023/03/16 07:02:15;;;;;;;12.38;4.03;;;;;;;;;;5053319;28;20479;-52
2023/03/16 07:04:41;;;;;;;13.07;3.83;;;;;;;;;;5053956;28;20548;-52
2023/03/16 07:07:07;;;;;;;9.73;3.95;;;;;;;;;;5051973;28;20021;-51
2023/03/16 07:09:32;;;;;;;10.93;4.47;;;;;;;;;;5054812;28;20017;-54
2023/03/16 07:11:58;;;;;;;9.18;4.00;;;;;;;;;;5053747;28;20032;-51
2023/03/16 07:14:24;;;;;;;9.20;4.00;;;;;;;;;;5057358;28;20017;-54
2023/03/16 07:16:51;;;;;;;12.93;4.28;;;;;;;;;;5057187;28;20036;-53
2023/03/16 07:19:16;;;;;;;7.95;4.20;;;;;;;;;;5056362;28;20028;-54
2023/03/16 07:21:42;;;;;;;10.38;4.43;;;;;;;;;;5050042;28;20454;-51
2023/03/16 07:24:08;;;;;;;7.80;4.25;;;;;;;;;;5042056;28;20040;-54
2023/03/16 07:26:33;;;;;;;9.82;3.90;;;;;;;;;;5045193;28;20075;-55
2023/03/16 07:28:59;;;;;;;10.77;4.13;;;;;;;;;;5046822;28;20032;-52
2023/03/16 07:31:24;;;;;;;10.15;4.63;;;;;;;;;;5062563;28;20020;-55
2023/03/16 07:33:49;;;;;;;9.65;4.40;;;;;;;;;;5063162;28;20020;-53
2023/03/16 07:36:14;;;;;;;10.73;4.50;;;;;;;;;;5062937;28;20040;-53
2023/03/16 07:38:40;;;;;;;10.85;4.57;;;;;;;;;;5062963;28;20372;-55
2023/03/16 07:41:06;;;;;;;13.23;4.28;;;;;;;;;;5062826;28;20017;-53
2023/03/16 07:43:31;;;;;;;12.07;4.85;;;;;;;;;;5043452;28;20024;-53
2023/03/16 07:45:57;;;;;;;10.52;4.68;;;;;;;;;;5062044;28;20048;-51
2023/03/16 07:48:22;;;;;;;9.07;4.13;;;;;;;;;;5070398;28;20037;-56
2023/03/16 07:50:48;;;;;;;11.48;4.07;;;;;;;;;;5047197;28;20041;-54
2023/03/16 07:53:14;;;;;;;8.77;3.75;;;;;;;;;;5093589;28;20407;-53
2023/03/16 07:55:40;;;;;;;10.95;3.85;;;;;;;;;;5045673;28;20028;-54
2023/03/16 07:58:05;;;;;;;11.82;4.25;;;;;;;;;;5043860;28;20036;-55
2023/03/16 08:00:32;;;;;;;13.90;5.38;;;;;;;;;;5048102;28;20036;-53
2023/03/16 08:02:57;;;;;;;10.43;3.70;;;;;;;;;;5050820;28;20090;-51
2023/03/16 08:05:23;;;;;;;9.93;3.78;;;;;;;;;;5049587;28;20111;-54
2023/03/16 08:07:48;;;;;;;11.68;3.95;;;;;;;;;;5050638;28;20219;-50
2023/03/16 08:10:13;;;;;;;10.13;3.75;;;;;;;;;;5055766;28;20420;-53
2023/03/16 08:12:40;;;;;;;10.85;4.28;;;;;;;;;;5055264;28;20475;-51
2023/03/16 08:15:06;;;;;;;12.68;4.05;;;;;;;;;;5053017;28;20064;-53
2023/03/16 08:17:32;;;;;;;7.40;3.22;;;;;;;;;;5053736;28;20058;-52
2023/03/16 08:19:57;;;;;;;9.15;3.92;;;;;;;;;;5057213;28;20016;-50
2023/03/16 08:22:23;;;;;;;11.95;3.83;;;;;;;;;;5055303;28;20487;-54
2023/03/16 08:24:49;;;;;;;10.40;3.47;;;;;;;;;;5049273;28;20142;-51
2023/03/16 08:27:14;;;;;;;11.02;3.50;;;;;;;;;;5058912;28;20025;-53
2023/03/16 08:29:40;;;;;;;9.60;3.70;;;;;;;;;;5058379;28;20529;-51
2023/03/16 08:32:05;;;;;;;11.60;3.80;;;;;;;;;;5057958;28;20028;-51
2023/03/16 08:34:31;;;;;;;10.90;4.00;;;;;;;;;;5062247;28;20023;-51
2023/03/16 08:36:56;;;;;;;10.00;3.30;;;;;;;;;;5062745;28;20029;-54
2023/03/16 08:39:21;;;;;;;9.82;3.63;;;;;;;;;;5052399;28;20033;-55
2023/03/16 08:41:47;;;;;;;10.23;3.58;;;;;;;;;;5053724;28;20062;-57
2023/03/16 08:44:13;;;;;;;10.52;3.42;;;;;;;;;;5057609;28;20024;-54
2023/03/16 08:46:39;;;;;;;61.22;4.82;;;;;;;;;;5063699;28;20197;-54
2023/03/16 08:49:05;;;;;;;8.93;3.50;;;;;;;;;;5061653;28;20025;-53
2023/03/16 08:51:31;;;;;;;15.82;3.80;;;;;;;;;;5047693;28;20112;-55
2023/03/16 08:53:56;;;;;;;8.90;3.42;;;;;;;;;;5048246;28;20029;-55
2023/03/16 08:56:21;;;;;;;7.28;2.95;;;;;;;;;;5050308;28;20025;-57
2023/03/16 08:58:47;;;;;;;8.77;3.25;;;;;;;;;;5051296;28;20023;-51
2023/03/16 09:01:13;;;;;;;6.70;3.60;;;;;;;;;;5052601;28;20032;-56
2023/03/16 09:03:41;;;;;;;10.45;3.33;;;;;;;;;;5050360;28;20171;-55
2023/03/16 09:06:12;;;;;;;10.77;4.10;;;;;;;;;;5046629;28;20025;-54
2023/03/16 09:08:40;;;;;;;6.03;3.20;;;;;;;;;;5059673;28;20040;-54
2023/03/16 09:11:07;;;;;;;5.65;2.85;;;;;;;;;;5091709;28;20039;-55
2023/03/16 09:13:32;;;;;;;8.70;3.10;;;;;;;;;;5056073;28;20105;-54
2023/03/16 09:15:58;;;;;;;7.95;3.10;;;;;;;;;;5066498;28;20651;-54
2023/03/16 09:18:25;;;;;;;5.68;2.90;;;;;;;;;;5067994;28;20520;-57
2023/03/16 09:20:51;;;;;;;7.68;3.00;;;;;;;;;;5072946;28;20024;-54
2023/03/16 09:23:18;;;;;;;10.13;2.83;;;;;;;;;;5067415;28;20475;-56
2023/03/16 09:25:44;;;;;;;7.55;3.13;;;;;;;;;;5067026;28;20391;-56
2023/03/16 09:28:10;;;;;;;6.82;2.78;;;;;;;;;;5065875;28;20028;-55
2023/03/16 09:30:36;;;;;;;15.93;3.38;;;;;;;;;;5067210;28;20350;-54
2023/03/16 09:33:01;;;;;;;8.70;3.35;;;;;;;;;;5065665;28;20031;-55
2023/03/16 09:35:26;;;;;;;7.07;2.93;;;;;;;;;;5065955;28;20024;-55
2023/03/16 09:37:51;;;;;;;5.93;3.03;;;;;;;;;;5066902;28;20369;-54
2023/03/16 09:40:20;;;;;;;6.43;2.88;;;;;;;;;;5067255;28;20023;-54
2023/03/16 09:42:51;;;;;;;13.20;3.40;;;;;;;;;;5053960;28;20198;-55
2023/03/16 09:45:22;;;;;;;6.05;3.10;;;;;;;;;;5065809;28;20067;-54
2023/03/16 09:47:49;;;;;;;7.97;3.03;;;;;;;;;;5066893;28;20051;-56
2023/03/16 09:50:22;;;;;;;5.20;2.53;;;;;;;;;;5066740;28;20021;-54
2023/03/16 09:53:06;;;;;;;7.00;2.70;;;;;;;;;;5065586;28;20032;-55
2023/03/16 09:55:33;;;;;;;9.48;3.22;;;;;;;;;;5066212;28;20017;-54
2023/03/16 09:57:59;;;;;;;9.18;2.97;;;;;;;;;;5051019;28;20526;-56
2023/03/16 10:00:29;;;;;;;9.73;3.88;;;;;;;;;;5060977;28;20017;-57
2023/03/16 10:03:10;;;;;;;6.65;2.80;;;;;;;;;;5064150;28;20664;-55
2023/03/16 10:05:36;;;;;;;11.90;2.75;;;;;;;;;;5056314;28;20044;-54
2023/03/16 10:08:01;;;;;;;7.20;2.53;;;;;;;;;;5064617;28;20035;-56
2023/03/16 10:10:42;;;;;;;8.10;2.57;;;;;;;;;;5076661;28;20056;-56
2023/03/16 10:13:27;;;;;;;5.60;2.78;;;;;;;;;;5045259;28;20333;-53
2023/03/16 10:15:53;;;;;;;4.57;2.55;;;;;;;;;;5027593;28;20529;-54
2023/03/16 10:18:25;;;;;;;4.68;2.30;;;;;;;;;;5026595;28;20064;-55
2023/03/16 10:20:51;;;;;;;5.55;2.50;;;;;;;;;;5038333;28;20905;-56
2023/03/16 10:23:20;;;;;;;7.13;2.85;;;;;;;;;;5023568;28;20474;-57
2023/03/16 10:25:49;;;;;;;7.68;2.90;;;;;;;;;;5035256;28;20033;-54
2023/03/16 10:28:16;;;;;;;5.70;2.28;;;;;;;;;;5042606;28;20032;-57
2023/03/16 10:30:42;;;;;;;6.80;2.90;;;;;;;;;;5029352;28;20033;-55
2023/03/16 10:33:18;;;;;;;5.38;2.53;;;;;;;;;;5027025;28;20087;-57
2023/03/16 10:35:45;;;;;;;6.07;2.40;;;;;;;;;;5037666;28;20028;-53
2023/03/16 10:38:29;;;;;;;5.40;3.83;;;;;;;;;;5050977;28;20024;-56
2023/03/16 10:40:56;;;;;;;6.10;2.70;;;;;;;;;;5033577;28;20129;-54
2023/03/16 10:43:22;;;;;;;8.07;2.65;;;;;;;;;;5038697;28;20029;-53
2023/03/16 10:45:47;;;;;;;6.57;2.80;;;;;;;;;;5049441;28;20467;-55
2023/03/16 10:48:14;;;;;;;6.90;2.47;;;;;;;;;;5063170;28;20051;-55
2023/03/16 10:50:40;;;;;;;5.25;2.58;;;;;;;;;;5046605;28;20017;-55
2023/03/16 10:53:15;;;;;;;12.73;2.85;;;;;;;;;;5055206;28;20102;-54
2023/03/16 10:55:42;;;;;;;4.82;2.38;;;;;;;;;;5064801;28;20025;-54
2023/03/16 10:58:08;;;;;;;5.45;2.67;;;;;;;;;;5073121;28;20035;-55
2023/03/16 11:00:35;;;;;;;10.10;3.03;;;;;;;;;;5067486;28;20020;-51
2023/03/16 11:03:11;;;;;;;7.80;2.80;;;;;;;;;;5063963;28;20032;-54
2023/03/16 11:05:37;;;;;;;5.97;2.55;;;;;;;;;;5061218;28;20056;-55
2023/03/16 11:08:09;;;;;;;3.15;1.90;;;;;;;;;;5063679;28;20078;-53
2023/03/16 11:10:38;;;;;;;6.95;2.53;;;;;;;;;;5065407;28;20027;-56
2023/03/16 11:13:14;;;;;;;6.82;2.80;;;;;;;;;;5066019;28;20044;-57
2023/03/16 11:15:46;;;;;;;6.05;2.97;;;;;;;;;;5056301;28;20024;-57
2023/03/16 11:18:20;;;;;;;5.07;2.47;;;;;;;;;;5055814;28;20036;-55
2023/03/16 11:20:46;;;;;;;5.10;2.58;;;;;;;;;;5061581;28;20020;-54
2023/03/16 11:23:13;;;;;;;6.72;2.38;;;;;;;;;;5063753;28;20112;-57
2023/03/16 11:25:41;;;;;;;6.28;2.28;;;;;;;;;;5060213;28;20511;-57
2023/03/16 11:28:13;;;;;;;3.60;2.00;;;;;;;;;;5056910;28;20922;-54
2023/03/16 11:30:38;;;;;;;4.90;2.15;;;;;;;;;;5055390;28;20033;-54
2023/03/16 11:33:08;;;;;;;6.00;2.27;;;;;;;;;;5059991;28;20023;-56
2023/03/16 11:35:33;;;;;;;8.80;2.45;;;;;;;;;;5056288;28;20340;-53
2023/03/16 11:38:16;;;;;;;4.95;2.63;;;;;;;;;;5062442;28;20165;-55
2023/03/16 11:40:55;;;;;;;4.57;2.38;;;;;;;;;;5057061;28;20023;-54
2023/03/16 11:43:37;;;;;;;4.40;2.25;;;;;;;;;;5059495;28;20032;-54
2023/03/16 11:46:11;;;;;;;7.68;3.03;;;;;;;;;;5056129;28;20071;-52
2023/03/16 11:48:36;;;;;;;4.85;2.20;;;;;;;;;;5061193;28;20021;-55
2023/03/16 11:51:02;;;;;;;9.50;2.40;;;;;;;;;;5054747;28;20020;-55
2023/03/16 11:53:34;;;;;;;8.98;2.88;;;;;;;;;;5055071;28;20036;-54
2023/03/16 11:56:08;;;;;;;4.75;2.20;;;;;;;;;;5090075;28;20029;-53
2023/03/16 11:58:53;;;;;;;6.10;2.10;;;;;;;;;;5051631;28;20027;-54
2023/03/16 12:01:37;;;;;;;17.75;3.40;;;;;;;;;;5058113;28;20056;-55
2023/03/16 12:04:08;;;;;;;5.80;2.20;;;;;;;;;;5064731;28;20134;-55
2023/03/16 12:06:34;;;;;;;4.93;2.10;;;;;;;;;;5053915;28;20032;-53
2023/03/16 12:09:06;;;;;;;3.97;2.37;;;;;;;;;;5057108;28;20107;-54
2023/03/16 12:11:50;;;;;;;5.72;2.53;;;;;;;;;;5051153;28;20731;-54
2023/03/16 12:14:28;;;;;;;5.85;2.10;;;;;;;;;;5056167;28;20024;-55
2023/03/16 12:16:59;;;;;;;27.25;18.00;;;;;;;;;;5050596;28;20017;-51
2023/03/16 12:19:43;;;;;;;8.15;2.10;;;;;;;;;;5067421;28;20033;-55
2023/03/16 12:22:20;;;;;;;4.97;1.98;;;;;;;;;;5058726;28;20033;-54
2023/03/16 12:24:46;;;;;;;8.05;2.80;;;;;;;;;;5049015;28;20051;-55
2023/03/16 12:27:17;;;;;;;9.15;2.20;;;;;;;;;;5053479;28;20028;-54
2023/03/16 13:30:59;;;;;;;3.20;1.50;;;;;;;;;;5055186;28;20417;-52
2023/03/16 13:33:26;;;;;;;4.90;1.92;;;;;;;;;;5043240;28;20482;-55
2023/03/16 13:35:53;;;;;;;5.72;1.92;;;;;;;;;;5046153;28;20024;-55
2023/03/16 13:38:24;;;;;;;13.60;2.25;;;;;;;;;;5029048;28;20018;-58
2023/03/16 13:41:10;;;;;;;7.15;2.40;;;;;;;;;;5031814;28;20029;-55
2023/03/16 13:43:37;;;;;;;3.95;2.05;;;;;;;;;;5015901;28;20030;-54
2023/03/16 13:46:15;;;;;;;3.40;1.80;;;;;;;;;;5021856;28;20057;-56
2023/03/16 13:48:41;;;;;;;3.30;1.77;;;;;;;;;;5015778;28;20124;-56
2023/03/16 13:51:12;;;;;;;3.55;1.95;;;;;;;;;;5020430;28;20064;-51
2023/03/16 13:53:39;;;;;;;3.13;1.80;;;;;;;;;;5015123;28;20041;-57
2023/03/16 13:56:04;;;;;;;3.83;1.63;;;;;;;;;;5018411;28;20041;-56
2023/03/16 13:58:36;;;;;;;4.40;2.30;;;;;;;;;;5018522;28;20034;-54
2023/03/16 14:01:03;;;;;;;4.07;2.47;;;;;;;;;;5022684;28;20044;-55
2023/03/16 14:03:31;;;;;;;91.78;39.60;;;;;;;;;;5009837;28;20444;-56
2023/03/16 14:05:56;;;;;;;3.70;2.20;;;;;;;;;;5015802;28;20036;-54
2023/03/16 14:08:22;;;;;;;5.30;2.17;;;;;;;;;;5016393;28;20442;-53
2023/03/16 14:10:49;;;;;;;4.20;2.20;;;;;;;;;;5012908;28;20026;-48
2023/03/16 14:13:20;;;;;;;4.00;2.10;;;;;;;;;;4994081;28;20064;-56
2023/03/16 14:15:46;;;;;;;4.82;1.80;;;;;;;;;;4969254;28;20032;-50
2023/03/16 14:18:20;;;;;;;6.90;2.20;;;;;;;;;;5020170;28;20037;-57
2023/03/16 14:20:45;;;;;;;3.80;1.77;;;;;;;;;;5024040;28;20509;-60
2023/03/16 14:23:16;;;;;;;3.67;1.63;;;;;;;;;;5028541;28;20033;-60
2023/03/16 14:25:41;;;;;;;5.55;1.77;;;;;;;;;;5038066;28;20564;-59
2023/03/16 14:28:07;;;;;;;5.13;2.10;;;;;;;;;;5041107;28;20033;-58
2023/03/16 14:30:33;;;;;;;4.15;2.00;;;;;;;;;;5038030;28;20037;-57
2023/03/16 14:32:59;;;;;;;6.10;1.95;;;;;;;;;;5030265;28;20017;-60
2023/03/16 14:35:29;;;;;;;5.20;1.70;;;;;;;;;;5029398;28;20021;-60
2023/03/16 14:37:55;;;;;;;5.72;2.58;;;;;;;;;;5030693;28;20041;-60
2023/03/16 14:40:27;;;;;;;4.32;1.90;;;;;;;;;;5030742;28;20025;-60
2023/03/16 14:42:54;;;;;;;4.70;1.95;;;;;;;;;;5028911;28;20368;-61
2023/03/16 14:45:20;;;;;;;4.35;1.77;;;;;;;;;;5030039;28;20028;-59
2023/03/16 14:47:46;;;;;;;4.53;2.03;;;;;;;;;;5030242;28;20030;-61
2023/03/16 14:50:22;;;;;;;3.90;2.22;;;;;;;;;;5030242;28;20064;-59
2023/03/16 14:52:50;;;;;;;4.22;1.92;;;;;;;;;;5030504;28;20052;-61
2023/03/16 14:55:16;;;;;;;3.70;1.80;;;;;;;;;;5030415;28;20429;-61
2023/03/16 14:57:43;;;;;;;3.22;1.50;;;;;;;;;;5030350;28;20026;-61
2023/03/16 15:00:11;;;;;;;2.78;1.60;;;;;;;;;;5029954;28;20025;-57
2023/03/16 15:02:37;;;;;;;3.03;1.85;;;;;;;;;;5029565;28;20370;-60
2023/03/16 15:05:02;;;;;;;3.97;1.85;;;;;;;;;;5030048;28;20017;-58
2023/03/16 15:07:29;;;;;;;2.03;1.63;;;;;;;;;;5030265;28;20044;-61
2023/03/16 15:10:04;;;;;;;6.47;1.95;;;;;;;;;;5030083;28;20034;-60
2023/03/16 15:12:29;;;;;;;2.22;1.60;;;;;;;;;;5030047;28;20029;-60
2023/03/16 15:17:38;;;;;;;3.83;2.05;;;;;;;;;;5029413;28;20048;-60
2023/03/16 15:20:04;;;;;;;4.22;2.05;;;;;;;;;;5029092;28;20025;-61
2023/03/16 15:22:31;;;;;;;5.32;2.10;;;;;;;;;;5029394;28;20440;-59
2023/03/16 15:24:57;;;;;;;3.28;1.67;;;;;;;;;;5029106;28;20083;-61
2023/03/16 15:27:24;;;;;;;3.58;1.83;;;;;;;;;;5029925;28;20037;-61
2023/03/16 15:29:49;;;;;;;3.28;2.10;;;;;;;;;;5029471;28;20053;-59
2023/03/16 15:32:15;;;;;;;3.35;1.85;;;;;;;;;;5029388;28;20100;-61
2023/03/16 15:34:41;;;;;;;4.60;2.40;;;;;;;;;;5029569;28;20434;-63
2023/03/16 15:37:10;;;;;;;4.93;2.33;;;;;;;;;;5028323;28;20108;-62
2023/03/16 15:39:36;;;;;;;7.22;2.60;;;;;;;;;;5028569;28;20109;-63
2023/03/16 15:42:01;;;;;;;6.25;1.95;;;;;;;;;;5027445;28;20105;-61